sensor_id;sensor_type;location;lat;lon;timestamp;P1;durP1;ratioP1;P2;durP2;ratioP2
2896;SDS011;1458;49.728;9.228;2023-07-29T00:01:40;0.10;;;0.10;;
2896;SDS011;1458;49.728;9.228;2023-07-29T00:04:07;0.10;;;0.10;;
2896;SDS011;1458;49.728;9.228;2023-07-29T00:06:35;0.10;;;0.10;;
2896;SDS011;1458;49.728;9.228;2023-07-29T00:09:03;0.10;;;0.10;;
2896;SDS011;1458;49.728;9.228;2023-07-29T00:11:30;0.10;;;0.10;;
2896;SDS011;1458;49.728;9.228;2023-07-29T00:14:00;0.20;;;0.20;;
2896;SDS011;1458;49.728;9.228;2023-07-29T00:16:28;0.00;;;0.00;;
2896;SDS011;1458;49.728;9.228;2023-07-29T00:18:55;0.10;;;0.10;;
2896;SDS011;1458;49.728;9.228;2023-07-29T00:21:22;0.10;;;0.10;;
2896;SDS011;1458;49.728;9.228;2023-07-29T00:23:50;0.10;;;0.10;;
2896;SDS011;1458;49.728;9.228;2023-07-29T00:26:17;0.10;;;0.10;;
2896;SDS011;1458;49.728;9.228;2023-07-29T00:28:47;0.10;;;0.10;;
2896;SDS011;1458;49.728;9.228;2023-07-29T00:31:15;0.13;;;0.13;;
2896;SDS011;1458;49.728;9.228;2023-07-29T00:33:43;0.10;;;0.10;;
2896;SDS011;1458;49.728;9.228;2023-07-29T00:36:10;0.10;;;0.10;;
2896;SDS011;1458;49.728;9.228;2023-07-29T00:38:37;0.10;;;0.10;;
2896;SDS011;1458;49.728;9.228;2023-07-29T00:41:05;0.13;;;0.13;;
2896;SDS011;1458;49.728;9.228;2023-07-29T00:43:33;0.10;;;0.10;;
2896;SDS011;1458;49.728;9.228;2023-07-29T00:46:01;0.10;;;0.10;;
2896;SDS011;1458;49.728;9.228;2023-07-29T00:48:30;0.10;;;0.10;;
2896;SDS011;1458;49.728;9.228;2023-07-29T00:50:58;0.10;;;0.10;;
2896;SDS011;1458;49.728;9.228;2023-07-29T00:53:27;0.10;;;0.10;;
2896;SDS011;1458;49.728;9.228;2023-07-29T00:55:54;0.10;;;0.10;;
2896;SDS011;1458;49.728;9.228;2023-07-29T00:58:21;0.10;;;0.10;;
2896;SDS011;1458;49.728;9.228;2023-07-29T01:00:49;0.10;;;0.10;;
2896;SDS011;1458;49.728;9.228;2023-07-29T01:03:17;0.10;;;0.10;;
2896;SDS011;1458;49.728;9.228;2023-07-29T01:05:49;0.10;;;0.10;;
2896;SDS011;1458;49.728;9.228;2023-07-29T01:08:44;0.10;;;0.10;;
2896;SDS011;1458;49.728;9.228;2023-07-29T01:11:23;0.00;;;0.00;;
2896;SDS011;1458;49.728;9.228;2023-07-29T01:14:04;0.10;;;0.10;;
2896;SDS011;1458;49.728;9.228;2023-07-29T01:16:46;0.10;;;0.10;;
2896;SDS011;1458;49.728;9.228;2023-07-29T01:19:22;0.10;;;0.10;;
2896;SDS011;1458;49.728;9.228;2023-07-29T01:22:10;0.10;;;0.10;;
2896;SDS011;1458;49.728;9.228;2023-07-29T01:24:40;0.10;;;0.10;;
2896;SDS011;1458;49.728;9.228;2023-07-29T01:27:08;0.10;;;0.10;;
2896;SDS011;1458;49.728;9.228;2023-07-29T01:29:35;0.10;;;0.10;;
2896;SDS011;1458;49.728;9.228;2023-07-29T01:32:04;0.10;;;0.10;;
2896;SDS011;1458;49.728;9.228;2023-07-29T01:34:39;0.10;;;0.10;;
2896;SDS011;1458;49.728;9.228;2023-07-29T01:37:15;0.10;;;0.10;;
2896;SDS011;1458;49.728;9.228;2023-07-29T01:39:47;0.10;;;0.10;;
2896;SDS011;1458;49.728;9.228;2023-07-29T01:42:17;0.10;;;0.10;;
2896;SDS011;1458;49.728;9.228;2023-07-29T01:44:45;0.10;;;0.10;;
2896;SDS011;1458;49.728;9.228;2023-07-29T01:47:12;0.17;;;0.17;;
2896;SDS011;1458;49.728;9.228;2023-07-29T01:49:40;0.10;;;0.10;;
2896;SDS011;1458;49.728;9.228;2023-07-29T01:52:07;0.10;;;0.10;;
2896;SDS011;1458;49.728;9.228;2023-07-29T01:54:36;0.10;;;0.10;;
2896;SDS011;1458;49.728;9.228;2023-07-29T01:57:05;0.10;;;0.10;;
2896;SDS011;1458;49.728;9.228;2023-07-29T01:59:32;0.10;;;0.10;;
2896;SDS011;1458;49.728;9.228;2023-07-29T02:02:00;0.10;;;0.10;;
2896;SDS011;1458;49.728;9.228;2023-07-29T02:04:28;0.10;;;0.10;;
2896;SDS011;1458;49.728;9.228;2023-07-29T02:06:55;0.10;;;0.10;;
2896;SDS011;1458;49.728;9.228;2023-07-29T02:09:23;0.10;;;0.10;;
2896;SDS011;1458;49.728;9.228;2023-07-29T02:11:51;0.10;;;0.10;;
2896;SDS011;1458;49.728;9.228;2023-07-29T02:14:20;0.10;;;0.10;;
2896;SDS011;1458;49.728;9.228;2023-07-29T02:16:47;0.10;;;0.10;;
2896;SDS011;1458;49.728;9.228;2023-07-29T02:19:15;0.10;;;0.10;;
2896;SDS011;1458;49.728;9.228;2023-07-29T02:21:42;0.00;;;0.00;;
2896;SDS011;1458;49.728;9.228;2023-07-29T02:24:10;0.10;;;0.10;;
2896;SDS011;1458;49.728;9.228;2023-07-29T02:26:37;0.10;;;0.10;;
2896;SDS011;1458;49.728;9.228;2023-07-29T02:29:05;0.10;;;0.10;;
2896;SDS011;1458;49.728;9.228;2023-07-29T02:31:33;0.10;;;0.10;;
2896;SDS011;1458;49.728;9.228;2023-07-29T02:34:02;0.10;;;0.10;;
2896;SDS011;1458;49.728;9.228;2023-07-29T02:36:30;0.10;;;0.10;;
2896;SDS011;1458;49.728;9.228;2023-07-29T02:38:58;0.10;;;0.10;;
2896;SDS011;1458;49.728;9.228;2023-07-29T02:41:25;0.10;;;0.10;;
2896;SDS011;1458;49.728;9.228;2023-07-29T02:43:53;0.10;;;0.10;;
2896;SDS011;1458;49.728;9.228;2023-07-29T02:46:20;0.10;;;0.10;;
2896;SDS011;1458;49.728;9.228;2023-07-29T02:48:49;0.10;;;0.10;;
2896;SDS011;1458;49.728;9.228;2023-07-29T02:51:17;0.10;;;0.10;;
2896;SDS011;1458;49.728;9.228;2023-07-29T02:53:44;0.10;;;0.10;;
2896;SDS011;1458;49.728;9.228;2023-07-29T02:56:12;0.10;;;0.10;;
2896;SDS011;1458;49.728;9.228;2023-07-29T02:58:39;0.10;;;0.10;;
2896;SDS011;1458;49.728;9.228;2023-07-29T03:01:07;0.10;;;0.10;;
2896;SDS011;1458;49.728;9.228;2023-07-29T03:03:35;0.10;;;0.10;;
2896;SDS011;1458;49.728;9.228;2023-07-29T03:06:05;0.10;;;0.10;;
2896;SDS011;1458;49.728;9.228;2023-07-29T03:08:34;0.10;;;0.10;;
2896;SDS011;1458;49.728;9.228;2023-07-29T03:11:04;0.10;;;0.10;;
2896;SDS011;1458;49.728;9.228;2023-07-29T03:13:33;0.10;;;0.10;;
2896;SDS011;1458;49.728;9.228;2023-07-29T03:16:04;0.10;;;0.10;;
2896;SDS011;1458;49.728;9.228;2023-07-29T03:18:32;0.20;;;0.20;;
2896;SDS011;1458;49.728;9.228;2023-07-29T03:21:00;0.10;;;0.10;;
2896;SDS011;1458;49.728;9.228;2023-07-29T03:23:29;0.10;;;0.10;;
2896;SDS011;1458;49.728;9.228;2023-07-29T03:25:58;0.10;;;0.10;;
2896;SDS011;1458;49.728;9.228;2023-07-29T03:28:32;0.20;;;0.20;;
2896;SDS011;1458;49.728;9.228;2023-07-29T03:31:00;0.10;;;0.10;;
2896;SDS011;1458;49.728;9.228;2023-07-29T03:33:28;0.10;;;0.10;;
2896;SDS011;1458;49.728;9.228;2023-07-29T03:35:56;0.10;;;0.10;;
2896;SDS011;1458;49.728;9.228;2023-07-29T03:38:23;0.10;;;0.10;;
2896;SDS011;1458;49.728;9.228;2023-07-29T03:40:52;0.10;;;0.10;;
2896;SDS011;1458;49.728;9.228;2023-07-29T03:43:20;0.10;;;0.10;;
2896;SDS011;1458;49.728;9.228;2023-07-29T03:45:47;0.10;;;0.10;;
2896;SDS011;1458;49.728;9.228;2023-07-29T03:48:15;0.10;;;0.10;;
2896;SDS011;1458;49.728;9.228;2023-07-29T03:50:42;0.10;;;0.10;;
2896;SDS011;1458;49.728;9.228;2023-07-29T03:53:10;0.10;;;0.10;;
2896;SDS011;1458;49.728;9.228;2023-07-29T03:55:37;0.10;;;0.10;;
2896;SDS011;1458;49.728;9.228;2023-07-29T03:58:06;0.10;;;0.10;;
2896;SDS011;1458;49.728;9.228;2023-07-29T04:00:33;0.10;;;0.10;;
2896;SDS011;1458;49.728;9.228;2023-07-29T04:03:01;0.10;;;0.10;;
2896;SDS011;1458;49.728;9.228;2023-07-29T04:05:28;0.10;;;0.10;;
2896;SDS011;1458;49.728;9.228;2023-07-29T04:07:55;0.10;;;0.10;;
2896;SDS011;1458;49.728;9.228;2023-07-29T04:10:23;0.10;;;0.10;;
2896;SDS011;1458;49.728;9.228;2023-07-29T04:12:50;0.10;;;0.10;;
2896;SDS011;1458;49.728;9.228;2023-07-29T04:15:19;0.10;;;0.10;;
2896;SDS011;1458;49.728;9.228;2023-07-29T04:17:47;0.10;;;0.10;;
2896;SDS011;1458;49.728;9.228;2023-07-29T04:20:14;0.20;;;0.20;;
2896;SDS011;1458;49.728;9.228;2023-07-29T04:22:42;0.10;;;0.10;;
2896;SDS011;1458;49.728;9.228;2023-07-29T04:25:09;0.10;;;0.10;;
2896;SDS011;1458;49.728;9.228;2023-07-29T04:27:38;0.10;;;0.10;;
2896;SDS011;1458;49.728;9.228;2023-07-29T04:30:06;0.10;;;0.10;;
2896;SDS011;1458;49.728;9.228;2023-07-29T04:32:36;0.10;;;0.10;;
2896;SDS011;1458;49.728;9.228;2023-07-29T04:35:07;0.10;;;0.10;;
2896;SDS011;1458;49.728;9.228;2023-07-29T04:37:36;0.00;;;0.00;;
2896;SDS011;1458;49.728;9.228;2023-07-29T04:40:04;0.10;;;0.10;;
2896;SDS011;1458;49.728;9.228;2023-07-29T04:42:32;0.10;;;0.10;;
2896;SDS011;1458;49.728;9.228;2023-07-29T04:45:01;0.10;;;0.10;;
2896;SDS011;1458;49.728;9.228;2023-07-29T04:47:31;0.10;;;0.10;;
2896;SDS011;1458;49.728;9.228;2023-07-29T04:50:00;0.17;;;0.17;;
2896;SDS011;1458;49.728;9.228;2023-07-29T04:52:27;0.10;;;0.10;;
2896;SDS011;1458;49.728;9.228;2023-07-29T04:54:55;0.10;;;0.10;;
2896;SDS011;1458;49.728;9.228;2023-07-29T04:57:22;0.10;;;0.10;;
2896;SDS011;1458;49.728;9.228;2023-07-29T04:59:49;0.00;;;0.00;;
2896;SDS011;1458;49.728;9.228;2023-07-29T05:02:17;0.10;;;0.10;;
2896;SDS011;1458;49.728;9.228;2023-07-29T05:04:44;0.10;;;0.10;;
2896;SDS011;1458;49.728;9.228;2023-07-29T05:07:14;0.10;;;0.10;;
2896;SDS011;1458;49.728;9.228;2023-07-29T05:09:41;0.10;;;0.10;;
2896;SDS011;1458;49.728;9.228;2023-07-29T05:12:09;0.10;;;0.10;;
2896;SDS011;1458;49.728;9.228;2023-07-29T05:14:36;0.10;;;0.10;;
2896;SDS011;1458;49.728;9.228;2023-07-29T05:17:04;0.10;;;0.10;;
2896;SDS011;1458;49.728;9.228;2023-07-29T05:19:32;0.10;;;0.10;;
2896;SDS011;1458;49.728;9.228;2023-07-29T05:21:59;0.00;;;0.00;;
2896;SDS011;1458;49.728;9.228;2023-07-29T05:24:28;0.10;;;0.10;;
2896;SDS011;1458;49.728;9.228;2023-07-29T05:26:56;0.10;;;0.10;;
2896;SDS011;1458;49.728;9.228;2023-07-29T05:29:23;0.10;;;0.10;;
2896;SDS011;1458;49.728;9.228;2023-07-29T05:31:51;0.10;;;0.10;;
2896;SDS011;1458;49.728;9.228;2023-07-29T05:34:18;0.10;;;0.10;;
2896;SDS011;1458;49.728;9.228;2023-07-29T05:36:46;0.10;;;0.10;;
2896;SDS011;1458;49.728;9.228;2023-07-29T05:39:13;0.10;;;0.10;;
2896;SDS011;1458;49.728;9.228;2023-07-29T05:41:42;0.10;;;0.10;;
2896;SDS011;1458;49.728;9.228;2023-07-29T05:44:09;0.10;;;0.10;;
2896;SDS011;1458;49.728;9.228;2023-07-29T05:46:37;0.10;;;0.10;;
2896;SDS011;1458;49.728;9.228;2023-07-29T05:49:04;0.10;;;0.10;;
2896;SDS011;1458;49.728;9.228;2023-07-29T05:51:32;0.10;;;0.10;;
2896;SDS011;1458;49.728;9.228;2023-07-29T05:53:59;0.10;;;0.10;;
2896;SDS011;1458;49.728;9.228;2023-07-29T05:56:26;0.10;;;0.10;;
2896;SDS011;1458;49.728;9.228;2023-07-29T05:58:56;0.10;;;0.10;;
2896;SDS011;1458;49.728;9.228;2023-07-29T06:01:23;0.10;;;0.10;;
2896;SDS011;1458;49.728;9.228;2023-07-29T06:03:52;0.00;;;0.00;;
2896;SDS011;1458;49.728;9.228;2023-07-29T06:06:19;0.10;;;0.10;;
2896;SDS011;1458;49.728;9.228;2023-07-29T06:08:48;0.10;;;0.10;;
2896;SDS011;1458;49.728;9.228;2023-07-29T06:11:16;0.10;;;0.10;;
2896;SDS011;1458;49.728;9.228;2023-07-29T06:13:43;0.10;;;0.10;;
2896;SDS011;1458;49.728;9.228;2023-07-29T06:16:15;0.10;;;0.10;;
2896;SDS011;1458;49.728;9.228;2023-07-29T06:18:43;0.10;;;0.10;;
2896;SDS011;1458;49.728;9.228;2023-07-29T06:21:10;0.10;;;0.10;;
2896;SDS011;1458;49.728;9.228;2023-07-29T06:23:42;0.10;;;0.10;;
2896;SDS011;1458;49.728;9.228;2023-07-29T06:26:09;0.00;;;0.00;;
2896;SDS011;1458;49.728;9.228;2023-07-29T06:28:36;0.10;;;0.10;;
2896;SDS011;1458;49.728;9.228;2023-07-29T06:31:04;0.10;;;0.10;;
2896;SDS011;1458;49.728;9.228;2023-07-29T06:33:33;0.10;;;0.10;;
2896;SDS011;1458;49.728;9.228;2023-07-29T06:36:00;0.10;;;0.10;;
2896;SDS011;1458;49.728;9.228;2023-07-29T06:38:27;0.10;;;0.10;;
2896;SDS011;1458;49.728;9.228;2023-07-29T06:40:55;0.10;;;0.10;;
2896;SDS011;1458;49.728;9.228;2023-07-29T06:43:22;0.10;;;0.10;;
2896;SDS011;1458;49.728;9.228;2023-07-29T06:45:50;0.10;;;0.10;;
2896;SDS011;1458;49.728;9.228;2023-07-29T06:48:17;0.10;;;0.10;;
2896;SDS011;1458;49.728;9.228;2023-07-29T06:50:46;0.07;;;0.07;;
2896;SDS011;1458;49.728;9.228;2023-07-29T06:53:15;0.10;;;0.10;;
2896;SDS011;1458;49.728;9.228;2023-07-29T06:55:43;0.10;;;0.10;;
2896;SDS011;1458;49.728;9.228;2023-07-29T06:58:10;0.10;;;0.10;;
2896;SDS011;1458;49.728;9.228;2023-07-29T07:00:38;0.10;;;0.10;;
2896;SDS011;1458;49.728;9.228;2023-07-29T07:03:05;0.10;;;0.10;;
2896;SDS011;1458;49.728;9.228;2023-07-29T07:05:32;0.10;;;0.10;;
2896;SDS011;1458;49.728;9.228;2023-07-29T07:08:01;0.07;;;0.07;;
2896;SDS011;1458;49.728;9.228;2023-07-29T07:10:29;0.10;;;0.10;;
2896;SDS011;1458;49.728;9.228;2023-07-29T07:12:57;0.10;;;0.10;;
2896;SDS011;1458;49.728;9.228;2023-07-29T07:15:24;0.10;;;0.10;;
2896;SDS011;1458;49.728;9.228;2023-07-29T07:17:52;0.10;;;0.10;;
2896;SDS011;1458;49.728;9.228;2023-07-29T07:20:19;0.10;;;0.10;;
2896;SDS011;1458;49.728;9.228;2023-07-29T07:22:47;0.00;;;0.00;;
2896;SDS011;1458;49.728;9.228;2023-07-29T07:25:16;0.10;;;0.10;;
2896;SDS011;1458;49.728;9.228;2023-07-29T07:27:43;0.10;;;0.10;;
2896;SDS011;1458;49.728;9.228;2023-07-29T07:30:11;0.10;;;0.10;;
2896;SDS011;1458;49.728;9.228;2023-07-29T07:32:38;0.10;;;0.10;;
2896;SDS011;1458;49.728;9.228;2023-07-29T07:35:06;0.10;;;0.10;;
2896;SDS011;1458;49.728;9.228;2023-07-29T07:37:34;0.20;;;0.20;;
2896;SDS011;1458;49.728;9.228;2023-07-29T07:40:01;0.10;;;0.10;;
2896;SDS011;1458;49.728;9.228;2023-07-29T07:42:31;0.10;;;0.10;;
2896;SDS011;1458;49.728;9.228;2023-07-29T07:44:58;0.10;;;0.10;;
2896;SDS011;1458;49.728;9.228;2023-07-29T07:47:25;0.10;;;0.10;;
2896;SDS011;1458;49.728;9.228;2023-07-29T07:49:53;0.10;;;0.10;;
2896;SDS011;1458;49.728;9.228;2023-07-29T07:52:20;0.10;;;0.10;;
2896;SDS011;1458;49.728;9.228;2023-07-29T07:54:51;0.20;;;0.20;;
2896;SDS011;1458;49.728;9.228;2023-07-29T07:57:19;0.10;;;0.10;;
2896;SDS011;1458;49.728;9.228;2023-07-29T07:59:49;0.20;;;0.20;;
2896;SDS011;1458;49.728;9.228;2023-07-29T08:02:17;0.10;;;0.10;;
2896;SDS011;1458;49.728;9.228;2023-07-29T08:04:45;0.13;;;0.13;;
2896;SDS011;1458;49.728;9.228;2023-07-29T08:07:13;0.10;;;0.10;;
2896;SDS011;1458;49.728;9.228;2023-07-29T08:09:40;0.10;;;0.10;;
2896;SDS011;1458;49.728;9.228;2023-07-29T08:12:08;0.10;;;0.10;;
2896;SDS011;1458;49.728;9.228;2023-07-29T08:14:35;0.10;;;0.10;;
2896;SDS011;1458;49.728;9.228;2023-07-29T08:17:04;0.10;;;0.10;;
2896;SDS011;1458;49.728;9.228;2023-07-29T08:19:31;0.10;;;0.10;;
2896;SDS011;1458;49.728;9.228;2023-07-29T08:22:01;0.10;;;0.10;;
2896;SDS011;1458;49.728;9.228;2023-07-29T08:24:29;0.10;;;0.10;;
2896;SDS011;1458;49.728;9.228;2023-07-29T08:26:56;0.10;;;0.10;;
2896;SDS011;1458;49.728;9.228;2023-07-29T08:29:24;0.10;;;0.10;;
2896;SDS011;1458;49.728;9.228;2023-07-29T08:31:52;0.10;;;0.10;;
2896;SDS011;1458;49.728;9.228;2023-07-29T08:34:22;0.10;;;0.10;;
2896;SDS011;1458;49.728;9.228;2023-07-29T08:36:49;0.10;;;0.10;;
2896;SDS011;1458;49.728;9.228;2023-07-29T08:39:16;0.10;;;0.10;;
2896;SDS011;1458;49.728;9.228;2023-07-29T08:41:45;0.10;;;0.10;;
2896;SDS011;1458;49.728;9.228;2023-07-29T08:44:23;0.10;;;0.10;;
2896;SDS011;1458;49.728;9.228;2023-07-29T08:46:53;0.10;;;0.10;;
2896;SDS011;1458;49.728;9.228;2023-07-29T08:49:23;0.10;;;0.10;;
2896;SDS011;1458;49.728;9.228;2023-07-29T08:51:53;0.10;;;0.10;;
2896;SDS011;1458;49.728;9.228;2023-07-29T08:54:22;0.10;;;0.10;;
2896;SDS011;1458;49.728;9.228;2023-07-29T08:56:50;0.00;;;0.00;;
2896;SDS011;1458;49.728;9.228;2023-07-29T08:59:18;0.10;;;0.10;;
2896;SDS011;1458;49.728;9.228;2023-07-29T09:01:46;0.00;;;0.00;;
2896;SDS011;1458;49.728;9.228;2023-07-29T09:04:14;0.00;;;0.00;;
2896;SDS011;1458;49.728;9.228;2023-07-29T09:06:44;0.10;;;0.10;;
2896;SDS011;1458;49.728;9.228;2023-07-29T09:09:17;0.10;;;0.10;;
2896;SDS011;1458;49.728;9.228;2023-07-29T09:11:44;0.10;;;0.10;;
2896;SDS011;1458;49.728;9.228;2023-07-29T09:14:12;0.10;;;0.10;;
2896;SDS011;1458;49.728;9.228;2023-07-29T09:16:41;0.10;;;0.10;;
2896;SDS011;1458;49.728;9.228;2023-07-29T09:19:08;0.10;;;0.10;;
2896;SDS011;1458;49.728;9.228;2023-07-29T09:21:38;0.00;;;0.00;;
2896;SDS011;1458;49.728;9.228;2023-07-29T09:24:08;0.10;;;0.10;;
2896;SDS011;1458;49.728;9.228;2023-07-29T09:26:37;0.00;;;0.00;;
2896;SDS011;1458;49.728;9.228;2023-07-29T09:29:07;0.10;;;0.10;;
2896;SDS011;1458;49.728;9.228;2023-07-29T09:31:34;0.10;;;0.10;;
2896;SDS011;1458;49.728;9.228;2023-07-29T09:34:03;0.10;;;0.10;;
2896;SDS011;1458;49.728;9.228;2023-07-29T09:36:31;0.10;;;0.10;;
2896;SDS011;1458;49.728;9.228;2023-07-29T09:39:01;0.10;;;0.10;;
2896;SDS011;1458;49.728;9.228;2023-07-29T09:41:31;0.10;;;0.10;;
2896;SDS011;1458;49.728;9.228;2023-07-29T09:43:59;0.10;;;0.10;;
2896;SDS011;1458;49.728;9.228;2023-07-29T09:46:31;0.10;;;0.10;;
2896;SDS011;1458;49.728;9.228;2023-07-29T09:49:03;0.10;;;0.10;;
2896;SDS011;1458;49.728;9.228;2023-07-29T09:51:32;0.10;;;0.10;;
2896;SDS011;1458;49.728;9.228;2023-07-29T09:54:05;0.10;;;0.10;;
2896;SDS011;1458;49.728;9.228;2023-07-29T09:56:39;0.00;;;0.00;;
2896;SDS011;1458;49.728;9.228;2023-07-29T09:59:08;0.10;;;0.10;;
2896;SDS011;1458;49.728;9.228;2023-07-29T10:01:36;0.10;;;0.10;;
2896;SDS011;1458;49.728;9.228;2023-07-29T10:04:04;0.10;;;0.10;;
2896;SDS011;1458;49.728;9.228;2023-07-29T10:06:32;0.10;;;0.10;;
2896;SDS011;1458;49.728;9.228;2023-07-29T10:09:01;0.10;;;0.10;;
2896;SDS011;1458;49.728;9.228;2023-07-29T10:11:28;0.10;;;0.10;;
2896;SDS011;1458;49.728;9.228;2023-07-29T10:13:59;0.10;;;0.10;;
2896;SDS011;1458;49.728;9.228;2023-07-29T10:16:28;0.10;;;0.10;;
2896;SDS011;1458;49.728;9.228;2023-07-29T10:18:56;0.10;;;0.10;;
2896;SDS011;1458;49.728;9.228;2023-07-29T10:21:24;0.10;;;0.10;;
2896;SDS011;1458;49.728;9.228;2023-07-29T10:23:52;0.10;;;0.10;;
2896;SDS011;1458;49.728;9.228;2023-07-29T10:26:24;0.10;;;0.10;;
2896;SDS011;1458;49.728;9.228;2023-07-29T10:28:53;0.10;;;0.10;;
2896;SDS011;1458;49.728;9.228;2023-07-29T10:31:30;0.10;;;0.10;;
2896;SDS011;1458;49.728;9.228;2023-07-29T10:33:59;0.10;;;0.10;;
2896;SDS011;1458;49.728;9.228;2023-07-29T10:36:27;0.10;;;0.10;;
2896;SDS011;1458;49.728;9.228;2023-07-29T10:38:55;0.10;;;0.10;;
2896;SDS011;1458;49.728;9.228;2023-07-29T10:41:22;0.20;;;0.20;;
2896;SDS011;1458;49.728;9.228;2023-07-29T10:43:50;0.20;;;0.20;;
2896;SDS011;1458;49.728;9.228;2023-07-29T10:46:19;0.30;;;0.30;;
2896;SDS011;1458;49.728;9.228;2023-07-29T10:48:52;0.30;;;0.30;;
2896;SDS011;1458;49.728;9.228;2023-07-29T10:51:25;0.30;;;0.30;;
2896;SDS011;1458;49.728;9.228;2023-07-29T10:53:56;0.30;;;0.30;;
2896;SDS011;1458;49.728;9.228;2023-07-29T10:56:26;0.37;;;0.37;;
2896;SDS011;1458;49.728;9.228;2023-07-29T10:58:59;0.30;;;0.30;;
2896;SDS011;1458;49.728;9.228;2023-07-29T11:02:01;0.90;;;0.90;;
2896;SDS011;1458;49.728;9.228;2023-07-29T11:04:29;0.80;;;0.80;;
2896;SDS011;1458;49.728;9.228;2023-07-29T11:10:01;1.10;;;1.10;;
2896;SDS011;1458;49.728;9.228;2023-07-29T11:12:37;2.10;;;2.10;;
2896;SDS011;1458;49.728;9.228;2023-07-29T11:15:20;2.80;;;2.80;;
2896;SDS011;1458;49.728;9.228;2023-07-29T11:17:52;2.03;;;2.03;;
2896;SDS011;1458;49.728;9.228;2023-07-29T11:20:21;2.90;;;2.90;;
2896;SDS011;1458;49.728;9.228;2023-07-29T11:22:49;3.00;;;3.00;;
2896;SDS011;1458;49.728;9.228;2023-07-29T11:25:18;3.17;;;3.17;;
2896;SDS011;1458;49.728;9.228;2023-07-29T11:27:46;2.60;;;2.60;;
2896;SDS011;1458;49.728;9.228;2023-07-29T11:30:15;2.50;;;2.50;;
2896;SDS011;1458;49.728;9.228;2023-07-29T11:32:43;3.10;;;3.10;;
2896;SDS011;1458;49.728;9.228;2023-07-29T11:35:13;2.80;;;2.80;;
2896;SDS011;1458;49.728;9.228;2023-07-29T11:37:43;3.40;;;3.40;;
2896;SDS011;1458;49.728;9.228;2023-07-29T11:40:13;4.17;;;4.17;;
2896;SDS011;1458;49.728;9.228;2023-07-29T11:42:42;4.50;;;4.50;;
2896;SDS011;1458;49.728;9.228;2023-07-29T11:45:10;5.30;;;5.30;;
2896;SDS011;1458;49.728;9.228;2023-07-29T11:47:38;4.40;;;4.40;;
2896;SDS011;1458;49.728;9.228;2023-07-29T11:50:06;4.40;;;4.40;;
2896;SDS011;1458;49.728;9.228;2023-07-29T11:52:37;3.97;;;3.97;;
2896;SDS011;1458;49.728;9.228;2023-07-29T11:55:06;4.10;;;4.10;;
2896;SDS011;1458;49.728;9.228;2023-07-29T11:57:35;3.93;;;3.93;;
2896;SDS011;1458;49.728;9.228;2023-07-29T12:00:04;4.20;;;4.20;;
2896;SDS011;1458;49.728;9.228;2023-07-29T12:02:38;2.90;;;2.90;;
2896;SDS011;1458;49.728;9.228;2023-07-29T12:05:09;3.00;;;3.00;;
2896;SDS011;1458;49.728;9.228;2023-07-29T12:07:40;3.10;;;3.10;;
2896;SDS011;1458;49.728;9.228;2023-07-29T12:10:10;3.70;;;3.70;;
2896;SDS011;1458;49.728;9.228;2023-07-29T12:12:40;4.07;;;4.07;;
2896;SDS011;1458;49.728;9.228;2023-07-29T12:15:11;3.60;;;3.60;;
2896;SDS011;1458;49.728;9.228;2023-07-29T12:17:39;3.70;;;3.70;;
2896;SDS011;1458;49.728;9.228;2023-07-29T12:20:08;3.50;;;3.50;;
2896;SDS011;1458;49.728;9.228;2023-07-29T12:22:37;2.90;;;2.90;;
2896;SDS011;1458;49.728;9.228;2023-07-29T12:25:09;2.40;;;2.40;;
2896;SDS011;1458;49.728;9.228;2023-07-29T12:27:37;2.40;;;2.40;;
2896;SDS011;1458;49.728;9.228;2023-07-29T12:30:04;2.50;;;2.50;;
2896;SDS011;1458;49.728;9.228;2023-07-29T12:32:33;2.70;;;2.70;;
2896;SDS011;1458;49.728;9.228;2023-07-29T12:35:10;2.80;;;2.80;;
2896;SDS011;1458;49.728;9.228;2023-07-29T12:37:38;2.73;;;2.73;;
2896;SDS011;1458;49.728;9.228;2023-07-29T12:40:20;2.20;;;2.20;;
2896;SDS011;1458;49.728;9.228;2023-07-29T12:42:49;2.50;;;2.50;;
2896;SDS011;1458;49.728;9.228;2023-07-29T12:45:17;2.90;;;2.90;;
2896;SDS011;1458;49.728;9.228;2023-07-29T12:47:48;3.30;;;3.30;;
2896;SDS011;1458;49.728;9.228;2023-07-29T12:50:16;4.10;;;4.10;;
2896;SDS011;1458;49.728;9.228;2023-07-29T12:52:43;3.90;;;3.90;;
2896;SDS011;1458;49.728;9.228;2023-07-29T12:55:12;4.93;;;4.93;;
2896;SDS011;1458;49.728;9.228;2023-07-29T12:57:40;4.93;;;4.93;;
2896;SDS011;1458;49.728;9.228;2023-07-29T13:00:09;4.93;;;4.93;;
2896;SDS011;1458;49.728;9.228;2023-07-29T13:02:38;5.30;;;5.30;;
2896;SDS011;1458;49.728;9.228;2023-07-29T13:05:08;5.40;;;5.40;;
2896;SDS011;1458;49.728;9.228;2023-07-29T13:07:37;4.90;;;4.90;;
2896;SDS011;1458;49.728;9.228;2023-07-29T13:10:05;5.30;;;5.30;;
2896;SDS011;1458;49.728;9.228;2023-07-29T13:12:35;5.50;;;5.50;;
2896;SDS011;1458;49.728;9.228;2023-07-29T13:15:03;5.67;;;5.67;;
2896;SDS011;1458;49.728;9.228;2023-07-29T13:17:32;5.20;;;5.20;;
2896;SDS011;1458;49.728;9.228;2023-07-29T13:20:00;6.83;;;6.73;;
2896;SDS011;1458;49.728;9.228;2023-07-29T13:22:27;6.70;;;6.60;;
2896;SDS011;1458;49.728;9.228;2023-07-29T13:24:55;6.57;;;6.53;;
2896;SDS011;1458;49.728;9.228;2023-07-29T13:27:22;7.50;;;7.40;;
2896;SDS011;1458;49.728;9.228;2023-07-29T13:29:52;8.40;;;8.30;;
2896;SDS011;1458;49.728;9.228;2023-07-29T13:32:19;9.57;;;9.37;;
2896;SDS011;1458;49.728;9.228;2023-07-29T13:34:46;9.77;;;9.57;;
2896;SDS011;1458;49.728;9.228;2023-07-29T13:37:14;9.70;;;9.50;;
2896;SDS011;1458;49.728;9.228;2023-07-29T13:39:41;9.47;;;9.27;;
2896;SDS011;1458;49.728;9.228;2023-07-29T13:42:09;8.80;;;8.60;;
2896;SDS011;1458;49.728;9.228;2023-07-29T13:44:37;9.60;;;9.40;;
2896;SDS011;1458;49.728;9.228;2023-07-29T13:47:06;9.70;;;9.50;;
2896;SDS011;1458;49.728;9.228;2023-07-29T13:49:33;9.40;;;9.20;;
2896;SDS011;1458;49.728;9.228;2023-07-29T13:52:01;9.30;;;9.10;;
2896;SDS011;1458;49.728;9.228;2023-07-29T13:54:28;9.60;;;9.40;;
2896;SDS011;1458;49.728;9.228;2023-07-29T13:56:56;9.93;;;9.73;;
2896;SDS011;1458;49.728;9.228;2023-07-29T13:59:23;10.70;;;10.40;;
2896;SDS011;1458;49.728;9.228;2023-07-29T14:01:50;10.77;;;10.47;;
2896;SDS011;1458;49.728;9.228;2023-07-29T14:04:19;12.30;;;11.90;;
2896;SDS011;1458;49.728;9.228;2023-07-29T14:06:47;11.90;;;11.60;;
2896;SDS011;1458;49.728;9.228;2023-07-29T14:09:14;12.87;;;12.47;;
2896;SDS011;1458;49.728;9.228;2023-07-29T14:11:42;13.00;;;12.60;;
2896;SDS011;1458;49.728;9.228;2023-07-29T14:14:09;12.90;;;12.50;;
2896;SDS011;1458;49.728;9.228;2023-07-29T14:16:37;13.27;;;12.87;;
2896;SDS011;1458;49.728;9.228;2023-07-29T14:19:05;12.80;;;12.40;;
2896;SDS011;1458;49.728;9.228;2023-07-29T14:21:34;12.60;;;12.20;;
2896;SDS011;1458;49.728;9.228;2023-07-29T14:24:02;12.70;;;12.30;;
2896;SDS011;1458;49.728;9.228;2023-07-29T14:26:29;12.90;;;12.50;;
2896;SDS011;1458;49.728;9.228;2023-07-29T14:28:59;13.43;;;13.03;;
2896;SDS011;1458;49.728;9.228;2023-07-29T14:31:27;13.83;;;13.33;;
2896;SDS011;1458;49.728;9.228;2023-07-29T14:33:54;13.20;;;12.80;;
2896;SDS011;1458;49.728;9.228;2023-07-29T14:36:22;13.87;;;13.37;;
2896;SDS011;1458;49.728;9.228;2023-07-29T14:38:51;13.90;;;13.40;;
2896;SDS011;1458;49.728;9.228;2023-07-29T14:41:18;13.67;;;13.17;;
2896;SDS011;1458;49.728;9.228;2023-07-29T14:43:46;13.70;;;13.20;;
2896;SDS011;1458;49.728;9.228;2023-07-29T14:46:13;13.70;;;13.20;;
2896;SDS011;1458;49.728;9.228;2023-07-29T14:48:40;13.40;;;13.00;;
2896;SDS011;1458;49.728;9.228;2023-07-29T14:51:08;13.50;;;13.07;;
2896;SDS011;1458;49.728;9.228;2023-07-29T14:53:36;13.13;;;12.73;;
2896;SDS011;1458;49.728;9.228;2023-07-29T14:56:05;13.70;;;13.20;;
2896;SDS011;1458;49.728;9.228;2023-07-29T14:58:33;13.53;;;13.10;;
2896;SDS011;1458;49.728;9.228;2023-07-29T15:01:00;13.00;;;12.60;;
2896;SDS011;1458;49.728;9.228;2023-07-29T15:03:28;13.40;;;13.00;;
2896;SDS011;1458;49.728;9.228;2023-07-29T15:05:55;13.07;;;12.67;;
2896;SDS011;1458;49.728;9.228;2023-07-29T15:08:24;13.17;;;12.77;;
2896;SDS011;1458;49.728;9.228;2023-07-29T15:10:51;13.40;;;13.00;;
2896;SDS011;1458;49.728;9.228;2023-07-29T15:13:21;13.20;;;12.80;;
2896;SDS011;1458;49.728;9.228;2023-07-29T15:15:49;13.50;;;13.10;;
2896;SDS011;1458;49.728;9.228;2023-07-29T15:18:16;13.20;;;12.80;;
2896;SDS011;1458;49.728;9.228;2023-07-29T15:20:43;13.00;;;12.60;;
2896;SDS011;1458;49.728;9.228;2023-07-29T15:23:11;12.67;;;12.27;;
2896;SDS011;1458;49.728;9.228;2023-07-29T15:25:40;12.57;;;12.17;;